Time;durP1;ratioP1;P1;durP2;ratioP2;P2;SDS_P1;SDS_P2;PMS_P1;PMS_P2;Temp;Humidity;BMP_temperature;BMP_pressure;BME280_temperature;BME280_humidity;BME280_pressure;Samples;Min_cycle;Max_cycle;Signal;HPM_P1;HPM_P2
2021/07/02 00:02:05;;;;;;;6.80;3.22;;;;;;;13.19;100.00;101088.50;5018970;28;20445;-61
2021/07/02 00:04:34;;;;;;;8.98;3.72;;;;;;;13.36;100.00;101094.66;5016805;28;20049;-61
2021/07/02 00:07:04;;;;;;;8.23;3.70;;;;;;;13.47;100.00;101081.84;5018737;28;20468;-61
2021/07/02 00:09:32;;;;;;;9.43;3.80;;;;;;;13.54;100.00;101080.16;5019174;28;20053;-61
2021/07/02 00:12:00;;;;;;;10.85;4.30;;;;;;;13.58;100.00;101084.13;5014096;28;20354;-61
2021/07/02 00:14:28;;;;;;;5.30;2.95;;;;;;;13.56;100.00;101078.13;5019171;28;20298;-61
2021/07/02 00:16:56;;;;;;;5.90;3.08;;;;;;;13.53;100.00;101081.16;5018443;28;20050;-61
2021/07/02 00:19:25;;;;;;;6.18;3.25;;;;;;;13.62;100.00;101081.94;5018118;28;20057;-61
2021/07/02 00:21:54;;;;;;;7.43;3.50;;;;;;;13.85;100.00;101082.81;5015805;28;20042;-61
2021/07/02 00:24:22;;;;;;;6.65;2.85;;;;;;;13.61;100.00;101083.81;5015476;28;20112;-61
2021/07/02 00:26:50;;;;;;;5.28;3.63;;;;;;;13.56;100.00;101087.00;5019624;28;20095;-61
2021/07/02 00:29:18;;;;;;;7.07;3.83;;;;;;;13.72;100.00;101082.56;5014586;28;20084;-61
2021/07/02 00:31:46;;;;;;;9.35;4.30;;;;;;;13.99;100.00;101083.06;5020427;28;20457;-62
2021/07/02 00:34:14;;;;;;;5.05;3.40;;;;;;;13.98;100.00;101082.22;5018402;28;20038;-62
2021/07/02 00:36:42;;;;;;;8.30;3.53;;;;;;;13.99;100.00;101075.84;5022141;28;20056;-61
2021/07/02 00:39:11;;;;;;;6.20;4.15;;;;;;;14.03;100.00;101081.69;5018625;28;20072;-61
2021/07/02 00:41:39;;;;;;;9.13;3.40;;;;;;;14.02;100.00;101077.31;5018074;28;20034;-61
2021/07/02 00:44:07;;;;;;;6.72;3.58;;;;;;;13.82;100.00;101076.97;5017365;28;20049;-61
2021/07/02 00:46:36;;;;;;;6.20;3.42;;;;;;;13.68;100.00;101081.25;5018238;28;20066;-61
2021/07/02 00:49:04;;;;;;;6.15;3.28;;;;;;;13.72;100.00;101087.94;5018557;28;20089;-61
2021/07/02 00:51:32;;;;;;;6.50;3.20;;;;;;;13.77;100.00;101082.88;5015070;28;20392;-61
2021/07/02 00:54:01;;;;;;;6.68;3.15;;;;;;;13.82;100.00;101083.19;5015213;28;20076;-63
2021/07/02 00:56:31;;;;;;;6.60;2.97;;;;;;;13.82;100.00;101087.69;5019025;28;20330;-61
2021/07/02 00:58:59;;;;;;;7.40;2.95;;;;;;;13.90;100.00;101079.59;5017113;28;20108;-61
2021/07/02 01:01:27;;;;;;;6.32;2.92;;;;;;;14.03;100.00;101079.00;5014404;28;20061;-61
2021/07/02 01:03:55;;;;;;;5.90;3.10;;;;;;;14.08;100.00;101084.69;5018198;28;20038;-60
2021/07/02 01:06:24;;;;;;;7.68;3.58;;;;;;;14.06;100.00;101079.50;5016600;28;20053;-61
2021/07/02 01:08:52;;;;;;;10.07;3.22;;;;;;;13.99;100.00;101078.53;5020713;28;20045;-61
2021/07/02 01:11:20;;;;;;;7.00;2.97;;;;;;;13.97;100.00;101074.34;5011754;28;20100;-61
2021/07/02 01:13:49;;;;;;;8.60;3.10;;;;;;;14.04;100.00;101070.75;5018740;28;20068;-60
2021/07/02 01:16:17;;;;;;;6.25;2.83;;;;;;;13.86;100.00;101071.06;5016325;28;20046;-61
2021/07/02 01:18:45;;;;;;;9.57;3.33;;;;;;;13.85;100.00;101065.84;5019335;28;20510;-61
2021/07/02 01:21:14;;;;;;;6.35;2.97;;;;;;;13.73;100.00;101068.13;5012720;28;20088;-61
2021/07/02 01:23:42;;;;;;;8.23;3.28;;;;;;;13.70;100.00;101074.69;5019146;28;20053;-61
2021/07/02 01:26:10;;;;;;;7.60;3.47;;;;;;;13.73;100.00;101068.13;5023239;28;20100;-61
2021/07/02 01:28:38;;;;;;;8.55;3.90;;;;;;;13.53;100.00;101073.94;5023338;28;20374;-61
2021/07/02 01:31:06;;;;;;;6.78;3.58;;;;;;;13.71;100.00;101079.03;5021027;28;20049;-61
2021/07/02 01:33:35;;;;;;;13.93;4.35;;;;;;;13.75;100.00;101079.50;5020447;28;20117;-61
2021/07/02 01:36:06;;;;;;;7.28;3.58;;;;;;;13.82;100.00;101074.28;5024657;28;20115;-61
2021/07/02 01:38:35;;;;;;;7.80;3.70;;;;;;;13.97;100.00;101068.97;5020870;28;20049;-61
2021/07/02 01:41:03;;;;;;;5.07;2.85;;;;;;;13.91;100.00;101067.84;5021173;28;20393;-61
2021/07/02 01:43:31;;;;;;;5.97;3.30;;;;;;;14.08;100.00;101069.38;5028218;28;20040;-61
2021/07/02 01:45:59;;;;;;;6.68;2.95;;;;;;;14.15;100.00;101074.03;5021564;28;20046;-61
2021/07/02 01:48:28;;;;;;;7.82;3.42;;;;;;;14.18;100.00;101062.94;5021715;28;20259;-60
2021/07/02 01:50:56;;;;;;;7.38;3.20;;;;;;;14.17;100.00;101058.59;5024538;28;20342;-60
2021/07/02 01:53:24;;;;;;;6.63;3.70;;;;;;;14.25;100.00;101066.56;5019348;28;20038;-61
2021/07/02 01:55:53;;;;;;;6.97;3.58;;;;;;;14.27;100.00;101064.53;5023035;28;20060;-61
2021/07/02 01:58:21;;;;;;;8.40;3.70;;;;;;;14.08;100.00;101064.00;5022183;28;20041;-61
2021/07/02 02:00:49;;;;;;;10.25;4.10;;;;;;;14.15;100.00;101057.91;5019492;28;20053;-61
2021/07/02 02:03:17;;;;;;;16.08;4.57;;;;;;;14.07;100.00;101059.66;5019451;28;20042;-61
2021/07/02 02:05:45;;;;;;;7.18;4.18;;;;;;;14.08;100.00;101060.50;5020285;28;20104;-61
2021/07/02 02:08:13;;;;;;;9.98;4.20;;;;;;;14.14;100.00;101057.09;5019303;28;20334;-60
2021/07/02 02:10:41;;;;;;;7.63;3.40;;;;;;;14.17;100.00;101059.41;5020486;28;20049;-61
2021/07/02 02:13:10;;;;;;;8.07;3.78;;;;;;;14.28;100.00;101050.91;5017398;28;20396;-61
2021/07/02 02:15:38;;;;;;;6.45;3.65;;;;;;;14.13;100.00;101050.03;5020468;28;20041;-61
2021/07/02 02:18:06;;;;;;;10.02;4.22;;;;;;;14.08;100.00;101053.28;5021790;28;20041;-60
2021/07/02 02:20:34;;;;;;;7.22;3.70;;;;;;;14.01;100.00;101055.00;5018356;28;20057;-61
2021/07/02 02:23:02;;;;;;;10.27;3.67;;;;;;;14.05;100.00;101048.28;5020151;28;20059;-61
2021/07/02 02:25:30;;;;;;;9.98;4.50;;;;;;;14.05;100.00;101045.59;5019005;28;20127;-61
2021/07/02 02:27:58;;;;;;;10.55;4.20;;;;;;;14.11;100.00;101044.03;5023857;28;20049;-62
2021/07/02 02:30:28;;;;;;;9.00;3.88;;;;;;;14.12;100.00;101046.53;5018998;28;20045;-61
2021/07/02 02:32:57;;;;;;;6.70;3.67;;;;;;;14.20;100.00;101042.94;5025654;28;20049;-61
2021/07/02 02:35:25;;;;;;;4.90;3.42;;;;;;;14.28;100.00;101032.13;5019090;28;20327;-61
2021/07/02 02:37:53;;;;;;;8.90;4.40;;;;;;;14.26;100.00;101030.63;5026661;28;20231;-61
2021/07/02 02:40:21;;;;;;;8.65;4.20;;;;;;;14.38;100.00;101031.03;5023380;28;20076;-61
2021/07/02 02:42:49;;;;;;;8.18;4.10;;;;;;;14.24;100.00;101025.44;5017722;28;20053;-60
2021/07/02 02:45:17;;;;;;;10.30;3.63;;;;;;;14.31;100.00;101028.22;5020493;28;20046;-61
2021/07/02 02:47:46;;;;;;;13.38;4.20;;;;;;;14.45;100.00;101037.34;5017382;28;20053;-61
2021/07/02 02:50:14;;;;;;;12.50;4.38;;;;;;;14.48;100.00;101034.28;5023733;28;20399;-60
2021/07/02 02:52:42;;;;;;;7.07;3.92;;;;;;;14.39;100.00;101033.53;5018793;28;20046;-61
2021/07/02 02:55:11;;;;;;;8.10;4.45;;;;;;;14.37;100.00;101027.50;5019898;28;20049;-61
2021/07/02 02:57:39;;;;;;;8.55;4.30;;;;;;;14.59;100.00;101025.75;5021432;28;20095;-60
2021/07/02 03:00:10;;;;;;;8.65;4.43;;;;;;;14.53;100.00;101036.41;5019397;28;20115;-60
2021/07/02 03:02:38;;;;;;;13.35;4.07;;;;;;;14.32;100.00;101029.91;5018629;28;20322;-60
2021/07/02 03:05:27;;;;;;;10.38;4.43;;;;;;;14.09;100.00;101030.78;5019925;28;20381;-61
2021/07/02 03:07:55;;;;;;;6.00;4.18;;;;;;;14.26;100.00;101027.94;5016070;28;20348;-60
2021/07/02 03:10:28;;;;;;;13.43;4.65;;;;;;;14.09;100.00;101032.63;5019464;28;20079;-60
2021/07/02 03:12:56;;;;;;;8.95;4.18;;;;;;;14.05;100.00;101029.47;5015875;28;20049;-61
2021/07/02 03:15:25;;;;;;;8.60;4.63;;;;;;;13.91;100.00;101027.59;5017739;28;20047;-60
2021/07/02 03:17:53;;;;;;;9.30;4.43;;;;;;;14.02;100.00;101024.47;5020014;28;20045;-61
2021/07/02 03:20:21;;;;;;;11.65;4.88;;;;;;;14.00;100.00;101022.97;5020568;28;20044;-60
2021/07/02 03:22:50;;;;;;;9.27;4.55;;;;;;;14.04;100.00;101026.97;5017969;28;20057;-60
2021/07/02 03:25:18;;;;;;;8.30;4.38;;;;;;;14.08;100.00;101028.28;5018231;28;20365;-60
2021/07/02 03:27:46;;;;;;;13.85;5.53;;;;;;;14.02;100.00;101024.47;5017214;28;20053;-60
2021/07/02 03:30:15;;;;;;;11.05;5.13;;;;;;;14.04;100.00;101021.59;5020873;28;20042;-60
2021/07/02 03:32:43;;;;;;;10.02;5.55;;;;;;;13.84;100.00;101021.25;5018700;28;20388;-61
2021/07/02 03:35:13;;;;;;;13.60;6.13;;;;;;;13.91;100.00;101022.22;5019077;28;20041;-60
2021/07/02 03:37:41;;;;;;;13.70;5.82;;;;;;;13.87;100.00;101016.34;5018770;28;20046;-60
2021/07/02 03:40:12;;;;;;;15.32;6.60;;;;;;;13.60;100.00;101023.09;5020741;28;20046;-61
2021/07/02 03:42:40;;;;;;;14.23;6.07;;;;;;;13.55;100.00;101018.28;5017390;28;20053;-61
2021/07/02 03:45:10;;;;;;;12.05;5.55;;;;;;;13.63;100.00;101008.50;5018186;28;20200;-60
2021/07/02 03:47:38;;;;;;;14.57;5.70;;;;;;;13.53;100.00;101017.59;5018458;28;20056;-60
2021/07/02 03:50:07;;;;;;;15.60;6.35;;;;;;;13.48;100.00;101017.31;5020112;28;20041;-60
2021/07/02 03:52:34;;;;;;;12.60;5.50;;;;;;;13.56;100.00;101011.06;5014801;28;20041;-60
2021/07/02 03:55:04;;;;;;;14.48;6.43;;;;;;;13.49;100.00;101013.59;5016333;28;20096;-60
2021/07/02 03:57:33;;;;;;;12.70;6.57;;;;;;;13.43;100.00;101020.50;5020546;28;20194;-60
2021/07/02 04:00:01;;;;;;;16.40;6.88;;;;;;;13.37;100.00;101026.59;5020391;28;20302;-60
2021/07/02 04:02:30;;;;;;;16.38;7.50;;;;;;;13.36;100.00;101024.09;5015610;28;20510;-61
2021/07/02 04:04:58;;;;;;;13.68;6.93;;;;;;;13.36;100.00;101032.97;5016649;28;20337;-60
2021/07/02 04:07:28;;;;;;;12.23;6.75;;;;;;;13.53;100.00;101024.81;5023238;28;20443;-60
2021/07/02 04:09:56;;;;;;;15.45;7.20;;;;;;;13.47;100.00;101036.25;5019599;28;20044;-60
2021/07/02 04:12:24;;;;;;;16.13;8.27;;;;;;;13.46;100.00;101042.66;5020857;28;20203;-61
2021/07/02 04:14:55;;;;;;;19.88;6.72;;;;;;;13.34;100.00;101043.00;5017090;28;20384;-60
2021/07/02 04:17:23;;;;;;;23.10;7.47;;;;;;;13.28;100.00;101038.34;5022957;28;20056;-60
2021/07/02 04:19:51;;;;;;;13.10;6.93;;;;;;;13.30;100.00;101041.69;5016598;28;20127;-60
2021/07/02 04:22:19;;;;;;;18.50;7.25;;;;;;;13.29;100.00;101037.31;5016706;28;20329;-61
2021/07/02 04:24:47;;;;;;;14.55;7.60;;;;;;;13.23;100.00;101035.38;5019042;28;20050;-62
2021/07/02 04:27:15;;;;;;;15.88;6.75;;;;;;;13.39;100.00;101042.50;5015770;28;20117;-60
2021/07/02 04:29:43;;;;;;;14.73;7.50;;;;;;;13.55;100.00;101039.75;5015207;28;20311;-61
2021/07/02 04:32:13;;;;;;;12.13;7.20;;;;;;;13.94;100.00;101040.63;5016559;28;20068;-60
2021/07/02 04:34:41;;;;;;;14.50;6.60;;;;;;;14.08;100.00;101037.16;5012694;28;20438;-60
2021/07/02 04:37:09;;;;;;;16.70;7.78;;;;;;;14.25;100.00;101032.47;5020433;28;20319;-61
2021/07/02 04:39:37;;;;;;;15.18;7.18;;;;;;;14.44;100.00;101025.75;5013039;28;20054;-60
2021/07/02 04:42:06;;;;;;;19.92;8.82;;;;;;;14.40;100.00;101035.22;5019758;28;20449;-61
2021/07/02 04:44:35;;;;;;;16.30;7.07;;;;;;;14.10;100.00;101037.84;5019217;28;20040;-60
2021/07/02 04:47:03;;;;;;;17.52;8.55;;;;;;;13.78;100.00;101036.25;5018701;28;20045;-60
2021/07/02 04:49:33;;;;;;;16.60;7.70;;;;;;;13.84;100.00;101046.25;5015788;28;20350;-61
2021/07/02 04:52:01;;;;;;;14.88;7.97;;;;;;;13.73;100.00;101042.13;5015873;28;20050;-60
2021/07/02 04:54:29;;;;;;;18.83;8.32;;;;;;;13.85;100.00;101039.88;5016423;28;20033;-61
2021/07/02 04:56:58;;;;;;;17.23;8.57;;;;;;;13.91;100.00;101039.16;5017548;28;20487;-60
2021/07/02 04:59:29;;;;;;;19.27;8.18;;;;;;;13.92;100.00;101045.34;5022377;28;20315;-60
2021/07/02 05:01:58;;;;;;;15.15;7.53;;;;;;;13.91;100.00;101046.38;5019455;28;20108;-61
2021/07/02 05:04:26;;;;;;;19.35;8.88;;;;;;;13.90;100.00;101042.84;5020699;28;20052;-60
2021/07/02 05:06:55;;;;;;;18.92;9.07;;;;;;;13.97;100.00;101042.13;5021791;28;20065;-61
2021/07/02 05:09:24;;;;;;;23.20;9.38;;;;;;;14.09;100.00;101046.03;5019639;28;20044;-60
2021/07/02 05:11:52;;;;;;;20.30;8.63;;;;;;;14.01;100.00;101041.59;5021288;28;20337;-60
2021/07/02 05:14:20;;;;;;;22.70;9.35;;;;;;;14.23;100.00;101045.28;5019934;28;20305;-61
2021/07/02 05:16:48;;;;;;;19.90;8.80;;;;;;;14.06;100.00;101041.91;5019451;28;20053;-60
2021/07/02 05:19:16;;;;;;;18.65;8.73;;;;;;;14.22;100.00;101040.09;5019532;28;20636;-61
2021/07/02 05:21:44;;;;;;;19.52;9.95;;;;;;;14.63;100.00;101043.22;5017198;28;20064;-60
2021/07/02 05:24:13;;;;;;;21.45;10.02;;;;;;;15.02;100.00;101037.75;5018691;28;20100;-60
2021/07/02 05:26:41;;;;;;;22.02;9.52;;;;;;;15.16;100.00;101044.97;5036911;28;20385;-61
2021/07/02 05:29:12;;;;;;;18.08;9.27;;;;;;;15.24;100.00;101038.63;5021669;28;20369;-60
2021/07/02 05:31:41;;;;;;;17.65;9.52;;;;;;;15.36;100.00;101031.75;5019506;28;20415;-60
2021/07/02 05:34:12;;;;;;;19.58;9.82;;;;;;;15.61;100.00;101037.63;5021431;28;20298;-61
2021/07/02 05:36:40;;;;;;;24.88;12.85;;;;;;;15.28;100.00;101034.53;5014821;28;20104;-61
2021/07/02 05:39:08;;;;;;;20.70;11.82;;;;;;;15.11;100.00;101034.78;5020019;28;20045;-61
2021/07/02 05:41:37;;;;;;;22.67;10.65;;;;;;;15.39;100.00;101042.13;5017115;28;20464;-60
2021/07/02 05:44:05;;;;;;;20.63;10.18;;;;;;;15.59;100.00;101047.75;5019977;28;20416;-60
2021/07/02 05:46:33;;;;;;;19.67;9.95;;;;;;;15.71;100.00;101055.31;5015734;28;20095;-61
2021/07/02 05:49:02;;;;;;;22.45;11.48;;;;;;;15.86;100.00;101048.03;5017777;28;20051;-62
2021/07/02 05:51:30;;;;;;;22.35;11.77;;;;;;;15.98;100.00;101045.66;5022821;28;20434;-62
2021/07/02 05:53:58;;;;;;;22.67;11.43;;;;;;;16.48;100.00;101046.47;5020946;28;20045;-61
2021/07/02 05:56:28;;;;;;;24.98;12.25;;;;;;;17.60;100.00;101059.09;5025043;28;20111;-60
2021/07/02 05:58:58;;;;;;;24.90;12.93;;;;;;;17.20;100.00;101054.38;5020203;28;20048;-61
2021/07/02 06:01:27;;;;;;;28.17;13.50;;;;;;;18.48;100.00;101053.56;5020171;28;20426;-61
2021/07/02 06:03:56;;;;;;;26.30;13.85;;;;;;;18.51;100.00;101053.13;5025754;28;20069;-61
2021/07/02 06:06:24;;;;;;;26.30;15.38;;;;;;;17.88;100.00;101059.75;5019377;28;20049;-61
2021/07/02 06:08:52;;;;;;;26.48;15.52;;;;;;;18.64;100.00;101060.41;5023683;28;20037;-61
2021/07/02 06:11:20;;;;;;;29.95;14.88;;;;;;;19.63;100.00;101059.44;5021589;28;20164;-60
2021/07/02 06:13:49;;;;;;;28.00;15.98;;;;;;;18.00;100.00;101069.97;5019531;28;20060;-62
2021/07/02 06:16:18;;;;;;;36.92;16.23;;;;;;;16.95;100.00;101064.84;5023670;28;20111;-60
2021/07/02 06:18:46;;;;;;;36.17;19.30;;;;;;;16.54;100.00;101071.81;5019228;28;20256;-60
2021/07/02 06:21:14;;;;;;;35.92;16.73;;;;;;;17.23;100.00;101069.34;5020958;28;20337;-60
2021/07/02 06:23:42;;;;;;;34.20;18.05;;;;;;;17.19;100.00;101075.13;5022586;28;20049;-60
2021/07/02 06:26:10;;;;;;;27.83;14.65;;;;;;;16.73;100.00;101067.59;5021464;28;20045;-60
2021/07/02 06:28:38;;;;;;;30.70;17.08;;;;;;;15.99;100.00;101076.94;5021920;28;20319;-61
2021/07/02 06:31:06;;;;;;;35.38;18.35;;;;;;;15.92;100.00;101078.75;5018921;28;20053;-60
2021/07/02 06:33:35;;;;;;;33.70;17.02;;;;;;;15.85;100.00;101089.47;5018264;28;20115;-60
2021/07/02 06:36:04;;;;;;;38.17;18.83;;;;;;;15.70;100.00;101083.25;5021046;28;20025;-61
2021/07/02 06:38:32;;;;;;;37.60;18.67;;;;;;;15.95;100.00;101083.75;5022476;28;20048;-61
2021/07/02 06:41:04;;;;;;;41.63;19.23;;;;;;;16.37;100.00;101086.59;5018651;28;20048;-60
2021/07/02 06:43:32;;;;;;;36.95;17.52;;;;;;;17.15;100.00;101090.06;5020942;28;20073;-60
2021/07/02 06:46:00;;;;;;;37.47;17.85;;;;;;;17.20;100.00;101090.28;5017745;28;20047;-61
2021/07/02 06:48:29;;;;;;;42.70;17.33;;;;;;;17.29;100.00;101101.75;5017735;28;20054;-61
2021/07/02 06:50:58;;;;;;;39.92;17.38;;;;;;;19.13;100.00;101090.69;5022093;28;20052;-61
2021/07/02 06:53:27;;;;;;;35.45;18.55;;;;;;;19.29;100.00;101089.38;5018939;28;20057;-61
2021/07/02 06:55:55;;;;;;;29.52;17.42;;;;;;;19.41;100.00;101094.97;5015597;28;20044;-61
2021/07/02 06:58:23;;;;;;;36.35;17.65;;;;;;;18.84;100.00;101095.53;5019942;28;20426;-61
2021/07/02 07:00:51;;;;;;;32.38;16.42;;;;;;;20.48;100.00;101102.41;5019203;28;20089;-61
2021/07/02 07:03:19;;;;;;;32.20;17.25;;;;;;;20.56;100.00;101098.59;5023916;28;20408;-61
2021/07/02 07:05:49;;;;;;;32.80;17.70;;;;;;;19.75;100.00;101093.75;5017239;28;20045;-61
2021/07/02 07:08:18;;;;;;;32.22;17.45;;;;;;;21.13;100.00;101098.47;5020084;28;20091;-61
2021/07/02 07:10:46;;;;;;;32.13;17.08;;;;;;;19.66;100.00;101092.34;5022318;28;20052;-61
2021/07/02 07:13:14;;;;;;;35.17;18.10;;;;;;;18.54;100.00;101097.84;5016239;28;20116;-61
2021/07/02 07:15:47;;;;;;;32.13;17.27;;;;;;;19.74;100.00;101099.38;5014265;28;20053;-61
2021/07/02 07:18:14;;;;;;;30.48;16.70;;;;;;;20.96;100.00;101103.66;5020269;28;20052;-61
2021/07/02 07:20:43;;;;;;;36.58;20.95;;;;;;;18.44;100.00;101109.09;5016613;28;20137;-61
2021/07/02 07:23:11;;;;;;;35.35;19.55;;;;;;;17.93;100.00;101106.97;5022278;28;20037;-61
2021/07/02 07:25:40;;;;;;;35.13;18.20;;;;;;;19.17;100.00;101102.75;5018738;28;20045;-61
2021/07/02 07:28:08;;;;;;;34.45;18.85;;;;;;;19.90;100.00;101100.78;5021529;28;20053;-62
2021/07/02 07:30:36;;;;;;;27.50;16.98;;;;;;;20.58;100.00;101108.19;5018657;28;20333;-62
2021/07/02 07:33:04;;;;;;;25.65;15.68;;;;;;;21.88;100.00;101105.44;5019441;28;20053;-61
2021/07/02 07:35:36;;;;;;;32.80;18.98;;;;;;;19.39;100.00;101116.84;5019735;28;20107;-62
2021/07/02 07:38:04;;;;;;;33.63;19.23;;;;;;;19.63;100.00;101110.91;5017461;28;20056;-61
2021/07/02 07:40:32;;;;;;;24.38;15.93;;;;;;;20.67;100.00;101107.88;5019413;28;20449;-61
2021/07/02 07:43:01;;;;;;;36.47;20.10;;;;;;;18.80;100.00;101113.22;5015414;28;20045;-61
2021/07/02 07:45:29;;;;;;;29.63;17.25;;;;;;;20.55;100.00;101111.31;5017553;28;20333;-61
2021/07/02 07:47:57;;;;;;;32.58;17.67;;;;;;;20.46;100.00;101112.66;5022133;28;20400;-61
2021/07/02 07:50:27;;;;;;;31.67;16.65;;;;;;;21.82;100.00;101120.78;5017605;28;20041;-61
2021/07/02 07:52:59;;;;;;;27.25;15.15;;;;;;;22.24;100.00;101124.56;5019514;28;20049;-61
2021/07/02 07:55:28;;;;;;;25.33;15.73;;;;;;;21.61;100.00;101126.75;5018599;28;20271;-61
2021/07/02 07:57:56;;;;;;;25.27;15.27;;;;;;;21.46;100.00;101121.66;5017687;28;20052;-61
2021/07/02 08:00:25;;;;;;;31.40;17.05;;;;;;;20.48;100.00;101124.13;5019326;28;20380;-61
2021/07/02 08:02:53;;;;;;;27.65;15.48;;;;;;;21.33;100.00;101125.38;5016833;28;20049;-61
2021/07/02 08:05:22;;;;;;;26.90;15.48;;;;;;;21.63;100.00;101132.75;5017020;28;20050;-61
2021/07/02 08:07:50;;;;;;;24.48;14.38;;;;;;;22.23;100.00;101129.19;5018415;28;20091;-61
2021/07/02 08:10:20;;;;;;;25.02;15.48;;;;;;;20.97;100.00;101127.03;5018110;28;20077;-61
2021/07/02 08:12:48;;;;;;;27.63;14.02;;;;;;;20.26;100.00;101126.41;5014456;28;20049;-61
2021/07/02 08:15:18;;;;;;;25.27;14.02;;;;;;;20.23;100.00;101126.81;5016079;28;20116;-61
2021/07/02 08:17:48;;;;;;;23.10;13.93;;;;;;;19.93;100.00;101128.28;5016329;28;20058;-61
2021/07/02 08:20:16;;;;;;;23.42;12.07;;;;;;;19.67;100.00;101133.81;5018159;28;20053;-61
2021/07/02 08:22:44;;;;;;;21.60;12.63;;;;;;;19.35;100.00;101133.72;5017047;28;20382;-61
2021/07/02 08:25:13;;;;;;;15.05;9.63;;;;;;;21.25;100.00;101140.09;5017053;28;20299;-61
2021/07/02 08:30:27;;;;;;;20.30;13.20;;;;;;;22.40;100.00;101150.28;5018133;28;20056;-62
2021/07/02 08:32:56;;;;;;;19.55;11.80;;;;;;;20.55;100.00;101152.00;5014097;28;20457;-61
2021/07/02 08:35:24;;;;;;;16.83;10.55;;;;;;;20.93;100.00;101150.25;5015460;28;20341;-61
2021/07/02 08:37:58;;;;;;;21.05;10.48;;;;;;;22.10;100.00;101156.56;5015779;28;20320;-61
2021/07/02 08:40:33;;;;;;;15.23;8.13;;;;;;;19.79;100.00;101151.09;5015321;28;20041;-61
2021/07/02 08:43:01;;;;;;;11.90;8.20;;;;;;;19.29;100.00;101148.13;5017259;28;20369;-60
2021/07/02 08:45:29;;;;;;;15.10;8.20;;;;;;;19.50;100.00;101164.09;5015519;28;20052;-61
2021/07/02 08:48:03;;;;;;;19.95;9.80;;;;;;;20.87;100.00;101157.41;5018204;28;20095;-61
2021/07/02 08:50:31;;;;;;;18.38;10.10;;;;;;;22.40;100.00;101153.84;5012595;28;20342;-61
2021/07/02 08:52:59;;;;;;;17.10;9.10;;;;;;;19.63;100.00;101152.34;5011861;28;20088;-61
2021/07/02 08:55:28;;;;;;;14.70;7.72;;;;;;;19.70;100.00;101158.56;5018000;28;20449;-61
2021/07/02 08:57:56;;;;;;;13.23;8.07;;;;;;;21.22;100.00;101154.13;5018829;28;21092;-61
2021/07/02 09:00:23;;;;;;;22.15;11.70;;;;;;;21.69;100.00;101150.03;5016084;28;20064;-61
2021/07/02 09:02:51;;;;;;;22.55;11.88;;;;;;;21.22;100.00;101154.13;5016985;28;20041;-61
2021/07/02 09:05:32;;;;;;;21.42;13.50;;;;;;;19.50;100.00;101150.53;5017374;28;20033;-61
2021/07/02 09:08:00;;;;;;;17.73;11.43;;;;;;;20.81;100.00;101148.28;5016083;28;20044;-61
2021/07/02 09:10:35;;;;;;;13.30;6.65;;;;;;;20.76;100.00;101147.28;5017311;28;20045;-61
2021/07/02 09:13:04;;;;;;;10.82;6.32;;;;;;;22.00;100.00;101148.97;5014862;28;20072;-61
2021/07/02 09:15:33;;;;;;;12.43;7.75;;;;;;;21.09;100.00;101141.53;5020422;28;20073;-61
2021/07/02 09:18:02;;;;;;;12.55;8.10;;;;;;;21.68;100.00;101143.78;5014980;28;20116;-61
2021/07/02 09:20:35;;;;;;;15.90;9.65;;;;;;;21.42;100.00;101150.34;5020643;28;20349;-61
2021/07/02 09:23:05;;;;;;;16.08;9.73;;;;;;;20.08;100.00;101149.66;5017438;28;20173;-60
2021/07/02 09:25:34;;;;;;;13.93;8.85;;;;;;;20.84;100.00;101148.88;5021111;28;20041;-60
2021/07/02 09:28:04;;;;;;;22.48;12.73;;;;;;;22.17;100.00;101155.44;5018627;28;20361;-61
2021/07/02 09:30:34;;;;;;;21.88;12.73;;;;;;;22.99;100.00;101150.31;5014246;28;20034;-60
2021/07/02 09:33:04;;;;;;;18.23;10.45;;;;;;;23.18;100.00;101159.22;5020172;28;20045;-61
2021/07/02 09:35:45;;;;;;;18.98;10.73;;;;;;;23.48;100.00;101152.78;5014986;28;20045;-60
2021/07/02 09:38:14;;;;;;;18.05;11.35;;;;;;;23.68;100.00;101153.16;5014335;28;20034;-61
2021/07/02 09:40:43;;;;;;;19.77;10.07;;;;;;;24.09;100.00;101163.22;5021966;28;20377;-61
2021/07/02 09:43:12;;;;;;;18.58;11.50;;;;;;;21.17;100.00;101166.72;5014105;28;20412;-60
2021/07/02 09:45:48;;;;;;;16.73;10.50;;;;;;;22.50;100.00;101167.72;5021749;28;20045;-60
2021/07/02 09:48:17;;;;;;;19.75;11.15;;;;;;;21.21;100.00;101157.91;5021919;28;20046;-60
2021/07/02 09:50:50;;;;;;;15.40;8.40;;;;;;;22.44;100.00;101167.81;5022060;28;20116;-60
2021/07/02 09:53:19;;;;;;;17.13;10.05;;;;;;;21.55;100.00;101165.69;5025810;28;20041;-60
2021/07/02 09:55:50;;;;;;;18.92;10.32;;;;;;;20.86;100.00;101157.63;5021559;28;20119;-60
2021/07/02 09:58:20;;;;;;;16.48;9.65;;;;;;;22.37;100.00;101158.94;5021298;28;20315;-60
2021/07/02 10:00:48;;;;;;;17.05;9.40;;;;;;;20.78;100.00;101150.59;5024620;28;20092;-60
2021/07/02 10:03:17;;;;;;;15.57;9.32;;;;;;;20.91;100.00;101153.19;5016826;28;20052;-60
2021/07/02 10:05:49;;;;;;;17.17;9.32;;;;;;;20.96;100.00;101152.53;5021388;28;20042;-61
2021/07/02 10:08:18;;;;;;;13.05;7.75;;;;;;;22.89;100.00;101158.28;5020713;28;20044;-60
2021/07/02 10:10:46;;;;;;;17.17;9.63;;;;;;;23.30;100.00;101165.47;5022371;28;20060;-60
2021/07/02 10:13:15;;;;;;;16.58;9.32;;;;;;;23.61;100.00;101154.38;5019961;28;20429;-60
2021/07/02 10:15:44;;;;;;;15.90;10.52;;;;;;;22.04;100.00;101157.50;5020038;28;20041;-60
2021/07/02 10:18:14;;;;;;;17.10;10.18;;;;;;;23.80;100.00;101158.59;5022094;28;20128;-59
2021/07/02 10:20:43;;;;;;;21.52;10.43;;;;;;;25.08;100.00;101159.09;5018427;28;20320;-60
2021/07/02 10:23:13;;;;;;;17.40;10.23;;;;;;;24.93;100.00;101156.97;5019400;28;20041;-60
2021/07/02 10:25:42;;;;;;;17.70;10.38;;;;;;;24.51;100.00;101157.38;5020759;28;20381;-60
2021/07/02 10:28:12;;;;;;;19.10;9.45;;;;;;;20.81;100.00;101150.19;5023164;28;20049;-60
2021/07/02 10:30:41;;;;;;;17.08;9.52;;;;;;;19.65;100.00;101162.97;5019025;28;20096;-62
2021/07/02 10:33:09;;;;;;;16.70;9.15;;;;;;;22.31;100.00;101169.66;5017437;28;20046;-61
2021/07/02 10:35:43;;;;;;;16.85;9.68;;;;;;;21.93;100.00;101162.69;5019696;28;20045;-61
2021/07/02 10:38:13;;;;;;;15.40;8.60;;;;;;;23.93;100.00;101152.03;5018071;28;20053;-62
2021/07/02 10:40:42;;;;;;;14.98;9.32;;;;;;;24.24;100.00;101147.09;5020119;28;20052;-61
2021/07/02 10:43:12;;;;;;;14.25;7.95;;;;;;;24.00;100.00;101146.41;5018263;28;20132;-62
2021/07/02 10:46:14;;;;;;;12.38;7.32;;;;;;;22.08;100.00;101150.56;5016607;28;20424;-59
2021/07/02 10:48:52;;;;;;;15.77;6.90;;;;;;;24.17;100.00;101146.44;5022399;28;20065;-60
2021/07/02 10:51:55;;;;;;;11.75;7.40;;;;;;;22.26;100.00;101146.94;5020498;28;20050;-60
2021/07/02 10:54:34;;;;;;;12.27;7.38;;;;;;;21.80;100.00;101147.41;5020405;28;20457;-61
2021/07/02 10:57:11;;;;;;;14.93;7.45;;;;;;;21.43;100.00;101147.38;5017455;28;20160;-62
2021/07/02 11:00:08;;;;;;;14.23;7.35;;;;;;;22.93;100.00;101148.56;5020628;28;20069;-62
2021/07/02 11:02:37;;;;;;;9.57;6.28;;;;;;;24.68;100.00;101144.59;5016450;28;20038;-61
2021/07/02 11:05:37;;;;;;;12.48;6.82;;;;;;;22.14;100.00;101150.47;5020393;28;20581;-61
2021/07/02 11:08:05;;;;;;;10.88;5.25;;;;;;;24.72;100.00;101142.19;4977980;28;20073;-61
2021/07/02 11:10:59;;;;;;;9.68;4.95;;;;;;;23.61;100.00;101143.50;5010312;28;20296;-62
2021/07/02 11:13:27;;;;;;;11.77;7.68;;;;;;;22.90;100.00;101147.13;5008855;28;20128;-61
2021/07/02 11:16:08;;;;;;;15.40;8.13;;;;;;;22.74;100.00;101143.25;5020352;28;20042;-62
2021/07/02 11:18:43;;;;;;;15.38;7.78;;;;;;;24.01;100.00;101131.72;5016339;28;20350;-61
2021/07/02 11:21:16;;;;;;;15.68;8.10;;;;;;;24.20;100.00;101124.16;5020973;28;20042;-61
2021/07/02 11:23:47;;;;;;;12.80;7.63;;;;;;;25.80;100.00;101126.34;5019380;28;20045;-62